sensor_id;sensor_type;location;lat;lon;timestamp;pressure;altitude;pressure_sealevel;temperature;humidity
43480;BME280;29067;35.492;-97.520;2023-07-08T00:01:12;96733.25;;;24.22;56.58
43480;BME280;29067;35.492;-97.520;2023-07-08T00:03:41;96732.47;;;23.94;56.33
43480;BME280;29067;35.492;-97.520;2023-07-08T00:06:14;96725.94;;;24.57;55.60
43480;BME280;29067;35.492;-97.520;2023-07-08T00:08:43;96724.65;;;23.50;59.03
43480;BME280;29067;35.492;-97.520;2023-07-08T00:11:13;96725.49;;;24.03;58.57
43480;BME280;29067;35.492;-97.520;2023-07-08T00:13:42;96750.64;;;24.54;59.87
43480;BME280;29067;35.492;-97.520;2023-07-08T00:16:12;96773.68;;;24.15;61.98
43480;BME280;29067;35.492;-97.520;2023-07-08T00:18:41;96790.23;;;24.00;65.13
43480;BME280;29067;35.492;-97.520;2023-07-08T00:21:10;96799.40;;;23.53;65.76
43480;BME280;29067;35.492;-97.520;2023-07-08T00:23:38;96795.24;;;23.55;64.95
43480;BME280;29067;35.492;-97.520;2023-07-08T00:26:11;96795.76;;;23.48;66.31
43480;BME280;29067;35.492;-97.520;2023-07-08T00:28:41;96799.27;;;24.73;63.85
43480;BME280;29067;35.492;-97.520;2023-07-08T00:31:10;96796.39;;;24.13;64.09
43480;BME280;29067;35.492;-97.520;2023-07-08T00:33:38;96800.59;;;22.83;66.80
43480;BME280;29067;35.492;-97.520;2023-07-08T00:36:11;96802.33;;;23.40;65.69
43480;BME280;29067;35.492;-97.520;2023-07-08T00:38:40;96803.94;;;23.33;65.70
43480;BME280;29067;35.492;-97.520;2023-07-08T00:41:13;96805.44;;;23.01;65.97
43480;BME280;29067;35.492;-97.520;2023-07-08T00:43:46;96803.19;;;24.85;62.53
43480;BME280;29067;35.492;-97.520;2023-07-08T00:46:25;96816.62;;;24.11;61.92
43480;BME280;29067;35.492;-97.520;2023-07-08T00:49:03;96828.19;;;23.01;62.82
43480;BME280;29067;35.492;-97.520;2023-07-08T00:51:33;96830.71;;;25.01;58.80
43480;BME280;29067;35.492;-97.520;2023-07-08T00:54:00;96840.28;;;24.24;59.39
43480;BME280;29067;35.492;-97.520;2023-07-08T00:56:32;96841.02;;;24.03;59.24
43480;BME280;29067;35.492;-97.520;2023-07-08T00:59:04;96833.13;;;24.64;57.41
43480;BME280;29067;35.492;-97.520;2023-07-08T01:01:36;96823.08;;;24.22;58.43
43480;BME280;29067;35.492;-97.520;2023-07-08T01:04:07;96817.61;;;23.85;59.40
43480;BME280;29067;35.492;-97.520;2023-07-08T01:06:40;96817.97;;;24.25;60.16
43480;BME280;29067;35.492;-97.520;2023-07-08T01:09:12;96813.43;;;25.53;56.43
43480;BME280;29067;35.492;-97.520;2023-07-08T01:11:42;96813.43;;;25.33;56.62
43480;BME280;29067;35.492;-97.520;2023-07-08T01:14:14;96806.43;;;25.16;57.54
43480;BME280;29067;35.492;-97.520;2023-07-08T01:16:44;96799.24;;;25.29;56.53
43480;BME280;29067;35.492;-97.520;2023-07-08T01:19:17;96801.70;;;25.13;56.34
43480;BME280;29067;35.492;-97.520;2023-07-08T01:21:47;96804.15;;;24.03;58.82
43480;BME280;29067;35.492;-97.520;2023-07-08T01:24:25;96803.83;;;24.75;58.02
43480;BME280;29067;35.492;-97.520;2023-07-08T01:26:55;96816.88;;;24.25;59.06
43480;BME280;29067;35.492;-97.520;2023-07-08T01:29:23;96833.20;;;24.90;58.24
43480;BME280;29067;35.492;-97.520;2023-07-08T01:31:53;96836.08;;;25.20;58.03
43480;BME280;29067;35.492;-97.520;2023-07-08T01:34:22;96843.39;;;25.13;58.59
43480;BME280;29067;35.492;-97.520;2023-07-08T01:36:53;96852.82;;;25.84;57.25
43480;BME280;29067;35.492;-97.520;2023-07-08T01:39:24;96858.70;;;26.03;56.21
43480;BME280;29067;35.492;-97.520;2023-07-08T01:41:52;96858.69;;;25.57;57.07
43480;BME280;29067;35.492;-97.520;2023-07-08T01:44:27;96870.03;;;24.94;57.82
43480;BME280;29067;35.492;-97.520;2023-07-08T01:46:58;96883.79;;;25.29;57.27
43480;BME280;29067;35.492;-97.520;2023-07-08T01:49:29;96894.99;;;24.33;59.34
43480;BME280;29067;35.492;-97.520;2023-07-08T01:51:58;96888.07;;;25.80;57.13
43480;BME280;29067;35.492;-97.520;2023-07-08T01:54:26;96891.73;;;25.64;57.05
43480;BME280;29067;35.492;-97.520;2023-07-08T01:56:56;96896.48;;;26.19;56.37
43480;BME280;29067;35.492;-97.520;2023-07-08T01:59:25;96893.73;;;25.59;57.46
43480;BME280;29067;35.492;-97.520;2023-07-08T02:01:53;96898.52;;;25.12;58.19
43480;BME280;29067;35.492;-97.520;2023-07-08T02:04:21;96895.56;;;26.21;56.21
43480;BME280;29067;35.492;-97.520;2023-07-08T02:06:52;96896.46;;;26.48;54.91
43480;BME280;29067;35.492;-97.520;2023-07-08T02:09:21;96895.06;;;26.31;55.43
43480;BME280;29067;35.492;-97.520;2023-07-08T02:11:49;96888.36;;;26.96;54.19
43480;BME280;29067;35.492;-97.520;2023-07-08T02:14:18;96881.63;;;25.40;56.54
43480;BME280;29067;35.492;-97.520;2023-07-08T02:16:46;96873.82;;;24.91;57.63
43480;BME280;29067;35.492;-97.520;2023-07-08T02:19:14;96864.80;;;23.97;59.47
43480;BME280;29067;35.492;-97.520;2023-07-08T02:21:43;96852.66;;;25.29;57.60
43480;BME280;29067;35.492;-97.520;2023-07-08T02:24:11;96865.84;;;24.12;58.70
43480;BME280;29067;35.492;-97.520;2023-07-08T02:26:39;96877.20;;;24.49;58.64
43480;BME280;29067;35.492;-97.520;2023-07-08T02:29:07;96882.01;;;24.43;58.09
43480;BME280;29067;35.492;-97.520;2023-07-08T02:31:36;96886.89;;;25.21;57.51
43480;BME280;29067;35.492;-97.520;2023-07-08T02:34:04;96897.22;;;24.52;59.09
43480;BME280;29067;35.492;-97.520;2023-07-08T02:36:33;96893.92;;;24.05;60.06
43480;BME280;29067;35.492;-97.520;2023-07-08T02:39:02;96893.62;;;23.52;60.51
43480;BME280;29067;35.492;-97.520;2023-07-08T02:41:30;96901.74;;;24.13;59.53
43480;BME280;29067;35.492;-97.520;2023-07-08T02:43:58;96912.73;;;25.76;57.93
43480;BME280;29067;35.492;-97.520;2023-07-08T02:46:26;96921.29;;;25.59;57.59
43480;BME280;29067;35.492;-97.520;2023-07-08T02:48:55;96938.50;;;25.19;58.88
43480;BME280;29067;35.492;-97.520;2023-07-08T02:51:25;96950.40;;;25.57;58.67
43480;BME280;29067;35.492;-97.520;2023-07-08T02:53:53;96951.85;;;24.68;59.26
43480;BME280;29067;35.492;-97.520;2023-07-08T02:56:21;96954.59;;;24.68;59.34
43480;BME280;29067;35.492;-97.520;2023-07-08T02:58:50;96955.27;;;25.79;57.88
43480;BME280;29067;35.492;-97.520;2023-07-08T03:01:18;96960.99;;;26.30;56.70
43480;BME280;29067;35.492;-97.520;2023-07-08T03:03:47;96971.21;;;26.73;56.13
43480;BME280;29067;35.492;-97.520;2023-07-08T03:06:15;96984.16;;;26.14;57.06
43480;BME280;29067;35.492;-97.520;2023-07-08T03:08:43;96991.98;;;25.12;58.01
43480;BME280;29067;35.492;-97.520;2023-07-08T03:11:12;97004.86;;;24.33;60.05
43480;BME280;29067;35.492;-97.520;2023-07-08T03:13:41;97016.90;;;24.20;60.93
43480;BME280;29067;35.492;-97.520;2023-07-08T03:16:09;97027.95;;;25.76;58.67
43480;BME280;29067;35.492;-97.520;2023-07-08T03:18:37;97034.41;;;26.38;57.63
43480;BME280;29067;35.492;-97.520;2023-07-08T03:21:05;97043.48;;;25.74;58.68
43480;BME280;29067;35.492;-97.520;2023-07-08T03:23:34;97049.33;;;26.03;58.77
43480;BME280;29067;35.492;-97.520;2023-07-08T03:26:02;97047.52;;;25.63;58.34
43480;BME280;29067;35.492;-97.520;2023-07-08T03:28:30;97042.04;;;26.25;58.76
43480;BME280;29067;35.492;-97.520;2023-07-08T03:30:59;97038.47;;;26.50;58.64
43480;BME280;29067;35.492;-97.520;2023-07-08T03:33:27;97033.38;;;27.22;56.76
43480;BME280;29067;35.492;-97.520;2023-07-08T03:35:56;97034.03;;;27.25;58.45
43480;BME280;29067;35.492;-97.520;2023-07-08T03:38:24;97034.70;;;26.82;57.85
43480;BME280;29067;35.492;-97.520;2023-07-08T03:40:52;97040.16;;;26.69;58.66
43480;BME280;29067;35.492;-97.520;2023-07-08T03:43:20;97041.48;;;27.16;59.19
43480;BME280;29067;35.492;-97.520;2023-07-08T03:45:49;97045.24;;;26.19;59.79
43480;BME280;29067;35.492;-97.520;2023-07-08T03:48:17;97055.02;;;25.83;61.14
43480;BME280;29067;35.492;-97.520;2023-07-08T03:50:45;97060.03;;;26.53;59.17
43480;BME280;29067;35.492;-97.520;2023-07-08T03:53:14;97063.55;;;26.96;58.44
43480;BME280;29067;35.492;-97.520;2023-07-08T03:55:42;97064.13;;;26.61;58.81
43480;BME280;29067;35.492;-97.520;2023-07-08T03:58:10;97062.89;;;26.34;61.13
43480;BME280;29067;35.492;-97.520;2023-07-08T04:00:38;97062.99;;;25.86;61.85
43480;BME280;29067;35.492;-97.520;2023-07-08T04:03:10;97053.22;;;26.31;60.73
43480;BME280;29067;35.492;-97.520;2023-07-08T04:05:39;97049.19;;;25.97;61.01
43480;BME280;29067;35.492;-97.520;2023-07-08T04:08:07;97047.39;;;25.40;62.96
43480;BME280;29067;35.492;-97.520;2023-07-08T04:10:35;97045.70;;;24.54;66.59
43480;BME280;29067;35.492;-97.520;2023-07-08T04:13:03;97049.39;;;24.57;69.98
43480;BME280;29067;35.492;-97.520;2023-07-08T04:15:32;97063.17;;;25.26;67.93
43480;BME280;29067;35.492;-97.520;2023-07-08T04:18:00;97068.40;;;25.21;68.61
43480;BME280;29067;35.492;-97.520;2023-07-08T04:20:29;97074.20;;;25.26;65.52
43480;BME280;29067;35.492;-97.520;2023-07-08T04:22:57;97156.85;;;24.07;71.17
43480;BME280;29067;35.492;-97.520;2023-07-08T04:25:25;97180.67;;;20.67;85.15
43480;BME280;29067;35.492;-97.520;2023-07-08T04:27:53;97176.49;;;17.85;100.00
43480;BME280;29067;35.492;-97.520;2023-07-08T04:30:24;97187.19;;;18.62;100.00
43480;BME280;29067;35.492;-97.520;2023-07-08T04:32:53;97206.47;;;18.39;99.24
43480;BME280;29067;35.492;-97.520;2023-07-08T04:35:21;97218.31;;;18.28;100.00
43480;BME280;29067;35.492;-97.520;2023-07-08T04:37:49;97222.04;;;18.64;95.13
43480;BME280;29067;35.492;-97.520;2023-07-08T04:40:20;97203.75;;;18.50;95.64
43480;BME280;29067;35.492;-97.520;2023-07-08T04:42:48;97202.69;;;17.48;100.00
43480;BME280;29067;35.492;-97.520;2023-07-08T04:45:17;97221.64;;;17.43;100.00
43480;BME280;29067;35.492;-97.520;2023-07-08T04:47:45;97224.87;;;16.99;100.00
43480;BME280;29067;35.492;-97.520;2023-07-08T04:50:13;97231.28;;;18.01;100.00
43480;BME280;29067;35.492;-97.520;2023-07-08T04:52:41;97230.27;;;19.06;100.00
43480;BME280;29067;35.492;-97.520;2023-07-08T04:55:11;97239.29;;;18.64;100.00
43480;BME280;29067;35.492;-97.520;2023-07-08T04:57:39;97244.63;;;18.96;96.55
43480;BME280;29067;35.492;-97.520;2023-07-08T05:00:11;97262.75;;;18.86;99.36
43480;BME280;29067;35.492;-97.520;2023-07-08T05:02:42;97245.67;;;18.29;98.46
43480;BME280;29067;35.492;-97.520;2023-07-08T05:05:10;97223.11;;;19.24;97.17
43480;BME280;29067;35.492;-97.520;2023-07-08T05:07:39;97227.85;;;18.25;99.32
43480;BME280;29067;35.492;-97.520;2023-07-08T05:10:08;97236.23;;;18.12;100.00
43480;BME280;29067;35.492;-97.520;2023-07-08T05:12:35;97231.60;;;18.23;99.70
43480;BME280;29067;35.492;-97.520;2023-07-08T05:15:05;97209.83;;;18.76;100.00
43480;BME280;29067;35.492;-97.520;2023-07-08T05:17:33;97193.73;;;18.42;100.00
43480;BME280;29067;35.492;-97.520;2023-07-08T05:20:02;97170.83;;;18.53;99.99
43480;BME280;29067;35.492;-97.520;2023-07-08T05:22:30;97147.82;;;18.83;95.09
43480;BME280;29067;35.492;-97.520;2023-07-08T05:24:57;97145.85;;;18.72;98.43
43480;BME280;29067;35.492;-97.520;2023-07-08T05:27:26;97130.63;;;18.90;91.85
43480;BME280;29067;35.492;-97.520;2023-07-08T05:29:54;97108.18;;;20.28;92.34
43480;BME280;29067;35.492;-97.520;2023-07-08T05:32:23;97098.91;;;20.01;91.32
43480;BME280;29067;35.492;-97.520;2023-07-08T05:34:51;97087.42;;;20.39;87.62
43480;BME280;29067;35.492;-97.520;2023-07-08T05:37:20;97090.53;;;21.29;81.20
43480;BME280;29067;35.492;-97.520;2023-07-08T05:39:48;97090.48;;;20.85;82.40
43480;BME280;29067;35.492;-97.520;2023-07-08T05:42:15;97085.38;;;19.62;83.78
43480;BME280;29067;35.492;-97.520;2023-07-08T05:44:44;97086.03;;;19.90;84.96
43480;BME280;29067;35.492;-97.520;2023-07-08T05:47:13;97098.25;;;21.01;81.75
43480;BME280;29067;35.492;-97.520;2023-07-08T05:49:42;97096.89;;;19.91;85.82
43480;BME280;29067;35.492;-97.520;2023-07-08T05:52:10;97088.61;;;20.25;85.69
43480;BME280;29067;35.492;-97.520;2023-07-08T05:54:38;97075.93;;;19.98;86.61
43480;BME280;29067;35.492;-97.520;2023-07-08T05:57:09;97075.85;;;20.27;85.75
43480;BME280;29067;35.492;-97.520;2023-07-08T05:59:39;97067.93;;;19.44;85.59
43480;BME280;29067;35.492;-97.520;2023-07-08T06:02:08;97058.38;;;20.16;85.80
43480;BME280;29067;35.492;-97.520;2023-07-08T06:04:38;97041.63;;;19.74;90.55
43480;BME280;29067;35.492;-97.520;2023-07-08T06:07:06;97033.84;;;20.21;91.41
43480;BME280;29067;35.492;-97.520;2023-07-08T06:09:35;97026.48;;;19.98;91.62
43480;BME280;29067;35.492;-97.520;2023-07-08T06:12:03;97013.97;;;20.18;92.73
43480;BME280;29067;35.492;-97.520;2023-07-08T06:14:31;96999.89;;;19.90;94.12
43480;BME280;29067;35.492;-97.520;2023-07-08T06:16:59;96990.25;;;19.38;90.89
43480;BME280;29067;35.492;-97.520;2023-07-08T06:19:27;96988.90;;;16.83;100.00
43480;BME280;29067;35.492;-97.520;2023-07-08T06:21:56;96985.33;;;16.41;100.00
43480;BME280;29067;35.492;-97.520;2023-07-08T06:24:24;96983.65;;;18.19;100.00
43480;BME280;29067;35.492;-97.520;2023-07-08T06:26:52;96993.78;;;17.80;100.00
43480;BME280;29067;35.492;-97.520;2023-07-08T06:29:20;96992.01;;;18.35;100.00
43480;BME280;29067;35.492;-97.520;2023-07-08T06:31:48;96989.76;;;18.69;100.00
43480;BME280;29067;35.492;-97.520;2023-07-08T06:34:18;96982.50;;;19.61;100.00
43480;BME280;29067;35.492;-97.520;2023-07-08T06:36:47;96982.38;;;19.78;100.00
43480;BME280;29067;35.492;-97.520;2023-07-08T06:39:15;96985.19;;;20.24;98.38
43480;BME280;29067;35.492;-97.520;2023-07-08T06:41:44;96984.02;;;19.48;100.00
43480;BME280;29067;35.492;-97.520;2023-07-08T06:44:12;96978.51;;;18.81;100.00
43480;BME280;29067;35.492;-97.520;2023-07-08T06:46:41;96970.37;;;19.35;100.00
43480;BME280;29067;35.492;-97.520;2023-07-08T06:49:09;96969.60;;;20.69;92.62
43480;BME280;29067;35.492;-97.520;2023-07-08T06:51:37;96984.71;;;20.97;88.62
43480;BME280;29067;35.492;-97.520;2023-07-08T06:54:06;97000.80;;;20.25;91.65
43480;BME280;29067;35.492;-97.520;2023-07-08T06:56:34;97010.52;;;19.85;94.11
43480;BME280;29067;35.492;-97.520;2023-07-08T06:59:03;97012.40;;;20.72;87.18
43480;BME280;29067;35.492;-97.520;2023-07-08T07:01:31;97017.17;;;20.24;91.14
43480;BME280;29067;35.492;-97.520;2023-07-08T07:03:59;97022.68;;;17.73;100.00
43480;BME280;29067;35.492;-97.520;2023-07-08T07:06:28;97010.57;;;18.99;100.00
43480;BME280;29067;35.492;-97.520;2023-07-08T07:08:56;97003.07;;;19.02;99.30
43480;BME280;29067;35.492;-97.520;2023-07-08T07:11:24;96985.97;;;18.91;99.79
43480;BME280;29067;35.492;-97.520;2023-07-08T07:13:53;96979.83;;;19.98;93.86
43480;BME280;29067;35.492;-97.520;2023-07-08T07:16:20;96965.96;;;20.34;90.86
43480;BME280;29067;35.492;-97.520;2023-07-08T07:18:49;96961.16;;;20.34;89.09
43480;BME280;29067;35.492;-97.520;2023-07-08T07:21:17;96957.78;;;18.88;93.99
43480;BME280;29067;35.492;-97.520;2023-07-08T07:23:45;96953.41;;;19.55;90.90
43480;BME280;29067;35.492;-97.520;2023-07-08T07:26:14;96933.17;;;18.95;94.65
43480;BME280;29067;35.492;-97.520;2023-07-08T07:28:42;96900.94;;;18.25;98.05
43480;BME280;29067;35.492;-97.520;2023-07-08T07:33:13;96891.39;;;18.17;91.21
43480;BME280;29067;35.492;-97.520;2023-07-08T07:35:43;96937.33;;;19.92;84.40
43480;BME280;29067;35.492;-97.520;2023-07-08T07:38:13;96977.51;;;20.81;84.01
43480;BME280;29067;35.492;-97.520;2023-07-08T07:40:42;96979.85;;;19.97;81.90
43480;BME280;29067;35.492;-97.520;2023-07-08T07:43:10;96963.43;;;18.65;90.67
43480;BME280;29067;35.492;-97.520;2023-07-08T07:45:39;96928.30;;;18.21;95.79
43480;BME280;29067;35.492;-97.520;2023-07-08T07:48:07;96893.31;;;17.85;97.63
43480;BME280;29067;35.492;-97.520;2023-07-08T07:50:35;96885.80;;;18.64;93.35
43480;BME280;29067;35.492;-97.520;2023-07-08T07:53:04;96899.80;;;19.19;88.24
43480;BME280;29067;35.492;-97.520;2023-07-08T07:55:31;96914.71;;;20.45;82.70
43480;BME280;29067;35.492;-97.520;2023-07-08T07:57:59;96922.79;;;20.02;83.28
43480;BME280;29067;35.492;-97.520;2023-07-08T08:00:27;96926.70;;;20.82;78.53
43480;BME280;29067;35.492;-97.520;2023-07-08T08:02:55;96951.93;;;20.54;79.32
43480;BME280;29067;35.492;-97.520;2023-07-08T08:05:23;96974.77;;;20.50;79.67
43480;BME280;29067;35.492;-97.520;2023-07-08T08:07:51;96991.82;;;22.13;74.22
43480;BME280;29067;35.492;-97.520;2023-07-08T08:10:18;97004.39;;;20.42;78.62
43480;BME280;29067;35.492;-97.520;2023-07-08T08:12:47;97003.29;;;19.88;80.29
43480;BME280;29067;35.492;-97.520;2023-07-08T08:15:15;96993.38;;;20.72;77.59
43480;BME280;29067;35.492;-97.520;2023-07-08T08:17:44;97013.79;;;20.08;82.78
43480;BME280;29067;35.492;-97.520;2023-07-08T08:20:11;97047.98;;;21.16;81.75
43480;BME280;29067;35.492;-97.520;2023-07-08T08:22:39;97043.23;;;18.36;91.50
43480;BME280;29067;35.492;-97.520;2023-07-08T08:25:07;97011.10;;;18.44;90.32
43480;BME280;29067;35.492;-97.520;2023-07-08T08:27:35;96975.04;;;19.89;80.91
43480;BME280;29067;35.492;-97.520;2023-07-08T08:30:06;96965.46;;;19.16;87.08
43480;BME280;29067;35.492;-97.520;2023-07-08T08:32:34;96990.60;;;20.32;83.68
43480;BME280;29067;35.492;-97.520;2023-07-08T08:35:02;97016.10;;;20.75;83.99
43480;BME280;29067;35.492;-97.520;2023-07-08T08:37:30;97011.73;;;20.32;80.22
43480;BME280;29067;35.492;-97.520;2023-07-08T08:39:57;96994.83;;;20.77;77.58
43480;BME280;29067;35.492;-97.520;2023-07-08T08:42:27;97003.32;;;20.40;79.16
43480;BME280;29067;35.492;-97.520;2023-07-08T08:44:58;97018.26;;;20.71;75.55
43480;BME280;29067;35.492;-97.520;2023-07-08T08:47:35;97011.67;;;20.86;74.98
43480;BME280;29067;35.492;-97.520;2023-07-08T08:50:17;97006.19;;;20.99;75.46
43480;BME280;29067;35.492;-97.520;2023-07-08T08:52:48;97008.60;;;20.80;75.42
43480;BME280;29067;35.492;-97.520;2023-07-08T08:55:16;97012.94;;;20.86;75.87
43480;BME280;29067;35.492;-97.520;2023-07-08T08:57:48;97015.38;;;21.37;75.48
43480;BME280;29067;35.492;-97.520;2023-07-08T09:00:26;97008.63;;;20.84;75.08
43480;BME280;29067;35.492;-97.520;2023-07-08T09:03:04;97002.61;;;20.97;74.69
43480;BME280;29067;35.492;-97.520;2023-07-08T09:05:36;97000.51;;;21.38;73.38
43480;BME280;29067;35.492;-97.520;2023-07-08T09:08:10;97002.30;;;20.73;75.19
43480;BME280;29067;35.492;-97.520;2023-07-08T09:10:45;96995.67;;;20.92;76.58
43480;BME280;29067;35.492;-97.520;2023-07-08T09:13:19;96994.88;;;20.80;74.26
43480;BME280;29067;35.492;-97.520;2023-07-08T09:15:54;97000.34;;;20.80;73.41
43480;BME280;29067;35.492;-97.520;2023-07-08T09:18:30;97002.52;;;20.83;74.57
43480;BME280;29067;35.492;-97.520;2023-07-08T09:21:03;96995.63;;;21.03;76.19
43480;BME280;29067;35.492;-97.520;2023-07-08T09:23:36;96995.01;;;21.53;72.53
43480;BME280;29067;35.492;-97.520;2023-07-08T09:26:07;96998.92;;;21.58;73.54
43480;BME280;29067;35.492;-97.520;2023-07-08T09:28:38;97006.67;;;21.70;73.11
43480;BME280;29067;35.492;-97.520;2023-07-08T09:33:53;97000.63;;;21.03;74.62
43480;BME280;29067;35.492;-97.520;2023-07-08T09:36:31;96989.26;;;21.30;74.14
43480;BME280;29067;35.492;-97.520;2023-07-08T09:39:00;96983.40;;;21.14;75.40
43480;BME280;29067;35.492;-97.520;2023-07-08T09:41:31;96974.97;;;21.58;73.42
43480;BME280;29067;35.492;-97.520;2023-07-08T09:44:16;96973.05;;;21.72;73.07
43480;BME280;29067;35.492;-97.520;2023-07-08T09:46:45;96982.82;;;20.49;78.23
43480;BME280;29067;35.492;-97.520;2023-07-08T09:49:23;96987.16;;;21.00;76.80
43480;BME280;29067;35.492;-97.520;2023-07-08T09:51:52;96977.41;;;21.01;75.77
43480;BME280;29067;35.492;-97.520;2023-07-08T09:54:21;96974.64;;;21.51;73.41
43480;BME280;29067;35.492;-97.520;2023-07-08T09:56:58;96965.58;;;22.06;72.89
43480;BME280;29067;35.492;-97.520;2023-07-08T09:59:30;96964.79;;;22.17;73.31
43480;BME280;29067;35.492;-97.520;2023-07-08T10:02:01;96973.72;;;21.74;72.12
43480;BME280;29067;35.492;-97.520;2023-07-08T10:04:30;96978.86;;;22.11;70.27
43480;BME280;29067;35.492;-97.520;2023-07-08T10:07:00;96974.77;;;22.24;70.84
43480;BME280;29067;35.492;-97.520;2023-07-08T10:09:27;96977.45;;;22.25;70.26
43480;BME280;29067;35.492;-97.520;2023-07-08T10:12:00;96981.03;;;20.53;75.44
43480;BME280;29067;35.492;-97.520;2023-07-08T10:14:35;96971.63;;;19.90;80.23
43480;BME280;29067;35.492;-97.520;2023-07-08T10:17:05;96962.75;;;20.51;75.72
43480;BME280;29067;35.492;-97.520;2023-07-08T10:19:33;96975.38;;;21.46;73.53
43480;BME280;29067;35.492;-97.520;2023-07-08T10:22:15;96992.84;;;21.14;74.11
43480;BME280;29067;35.492;-97.520;2023-07-08T10:24:55;96988.85;;;21.79;73.39
43480;BME280;29067;35.492;-97.520;2023-07-08T10:27:34;96985.28;;;21.75;71.81
43480;BME280;29067;35.492;-97.520;2023-07-08T10:30:16;96995.06;;;20.50;74.72
43480;BME280;29067;35.492;-97.520;2023-07-08T10:32:58;96989.69;;;21.16;72.38
43480;BME280;29067;35.492;-97.520;2023-07-08T10:35:32;96990.56;;;21.53;72.67
43480;BME280;29067;35.492;-97.520;2023-07-08T10:38:13;96997.49;;;21.02;74.31
43480;BME280;29067;35.492;-97.520;2023-07-08T10:40:48;96992.87;;;20.49;76.53
43480;BME280;29067;35.492;-97.520;2023-07-08T10:43:37;96988.04;;;21.30;73.62
43480;BME280;29067;35.492;-97.520;2023-07-08T10:46:20;96981.64;;;21.80;71.89
43480;BME280;29067;35.492;-97.520;2023-07-08T10:49:06;96986.06;;;20.98;72.88
43480;BME280;29067;35.492;-97.520;2023-07-08T10:51:47;96982.45;;;20.58;73.85
43480;BME280;29067;35.492;-97.520;2023-07-08T10:54:34;96978.09;;;21.49;72.55
43480;BME280;29067;35.492;-97.520;2023-07-08T10:57:24;96977.61;;;20.89;74.39
43480;BME280;29067;35.492;-97.520;2023-07-08T11:00:02;96979.26;;;20.93;70.42
43480;BME280;29067;35.492;-97.520;2023-07-08T11:03:20;96984.35;;;20.53;73.26
43480;BME280;29067;35.492;-97.520;2023-07-08T11:06:00;96992.62;;;22.15;69.68
43480;BME280;29067;35.492;-97.520;2023-07-08T11:08:35;97013.54;;;21.27;69.57
43480;BME280;29067;35.492;-97.520;2023-07-08T11:11:08;97021.72;;;21.77;69.18
43480;BME280;29067;35.492;-97.520;2023-07-08T11:13:42;97025.63;;;22.29;68.18
43480;BME280;29067;35.492;-97.520;2023-07-08T11:16:19;97037.21;;;21.63;68.12
43480;BME280;29067;35.492;-97.520;2023-07-08T11:18:55;97041.76;;;22.73;67.32
43480;BME280;29067;35.492;-97.520;2023-07-08T11:21:29;97042.71;;;22.68;66.40
43480;BME280;29067;35.492;-97.520;2023-07-08T11:24:04;97057.22;;;21.75;68.42
43480;BME280;29067;35.492;-97.520;2023-07-08T11:26:41;97059.57;;;20.73;70.92
43480;BME280;29067;35.492;-97.520;2023-07-08T11:29:17;97052.67;;;20.53;70.79
43480;BME280;29067;35.492;-97.520;2023-07-08T11:31:47;97047.54;;;21.63;67.96
43480;BME280;29067;35.492;-97.520;2023-07-08T11:34:17;97052.16;;;22.07;68.03
43480;BME280;29067;35.492;-97.520;2023-07-08T11:36:46;97052.21;;;21.87;66.48
43480;BME280;29067;35.492;-97.520;2023-07-08T11:39:33;97057.62;;;21.61;67.93
43480;BME280;29067;35.492;-97.520;2023-07-08T11:42:19;97061.98;;;21.28;66.35
43480;BME280;29067;35.492;-97.520;2023-07-08T11:44:51;97059.31;;;21.97;66.14
43480;BME280;29067;35.492;-97.520;2023-07-08T11:47:26;97051.51;;;21.38;65.80
43480;BME280;29067;35.492;-97.520;2023-07-08T11:50:01;97053.15;;;20.88;66.69
43480;BME280;29067;35.492;-97.520;2023-07-08T11:52:49;97044.88;;;22.45;64.41
43480;BME280;29067;35.492;-97.520;2023-07-08T11:55:24;97041.78;;;21.74;65.74
43480;BME280;29067;35.492;-97.520;2023-07-08T11:57:54;97038.63;;;22.03;64.82
43480;BME280;29067;35.492;-97.520;2023-07-08T12:00:24;97039.66;;;22.88;64.38
43480;BME280;29067;35.492;-97.520;2023-07-08T12:02:56;97037.13;;;22.07;64.63
43480;BME280;29067;35.492;-97.520;2023-07-08T12:05:34;97045.75;;;21.80;64.79
43480;BME280;29067;35.492;-97.520;2023-07-08T12:08:12;97054.73;;;21.66;63.50
43480;BME280;29067;35.492;-97.520;2023-07-08T12:10:45;97057.65;;;21.33;64.14
43480;BME280;29067;35.492;-97.520;2023-07-08T12:13:16;97059.82;;;22.38;64.23
43480;BME280;29067;35.492;-97.520;2023-07-08T12:15:45;97066.95;;;22.89;62.09
43480;BME280;29067;35.492;-97.520;2023-07-08T12:18:15;97073.02;;;22.33;62.11
43480;BME280;29067;35.492;-97.520;2023-07-08T12:20:46;97071.51;;;21.81;63.58
43480;BME280;29067;35.492;-97.520;2023-07-08T12:23:20;97073.56;;;22.32;62.78
43480;BME280;29067;35.492;-97.520;2023-07-08T12:25:49;97077.12;;;21.76;62.75
43480;BME280;29067;35.492;-97.520;2023-07-08T12:28:18;97077.43;;;22.19;62.03
43480;BME280;29067;35.492;-97.520;2023-07-08T12:30:48;97081.07;;;20.93;64.78
43480;BME280;29067;35.492;-97.520;2023-07-08T12:33:27;97076.48;;;21.95;63.32
43480;BME280;29067;35.492;-97.520;2023-07-08T12:35:56;97070.71;;;21.93;61.56
43480;BME280;29067;35.492;-97.520;2023-07-08T12:38:28;97065.76;;;22.57;64.20
43480;BME280;29067;35.492;-97.520;2023-07-08T12:40:57;97060.03;;;22.92;62.43
43480;BME280;29067;35.492;-97.520;2023-07-08T12:43:26;97061.41;;;22.65;62.71
43480;BME280;29067;35.492;-97.520;2023-07-08T12:45:54;97064.35;;;22.86;63.80
43480;BME280;29067;35.492;-97.520;2023-07-08T12:48:22;97069.42;;;22.39;64.69
43480;BME280;29067;35.492;-97.520;2023-07-08T12:50:51;97074.76;;;22.02;64.27
43480;BME280;29067;35.492;-97.520;2023-07-08T12:53:19;97074.46;;;22.17;63.69
43480;BME280;29067;35.492;-97.520;2023-07-08T12:55:57;97070.85;;;22.32;62.76
43480;BME280;29067;35.492;-97.520;2023-07-08T12:58:28;97062.90;;;22.86;60.71
43480;BME280;29067;35.492;-97.520;2023-07-08T13:00:59;97058.28;;;23.21;61.50